createdAt,value
2018-07-16T00:00:25.542Z,72.57
2018-07-16T00:02:53.917Z,72.69
2018-07-16T00:05:22.342Z,73.08
2018-07-16T00:07:50.722Z,73.71
2018-07-16T00:10:19.148Z,73.05
2018-07-16T00:12:47.553Z,73.15
2018-07-16T00:15:15.959Z,73.39
2018-07-16T00:17:44.343Z,73.73
2018-07-16T00:20:12.754Z,73.25
2018-07-16T00:22:41.130Z,73.02
2018-07-16T00:25:09.557Z,73.44
2018-07-16T00:27:37.927Z,73.17
2018-07-16T00:30:06.339Z,73.27
2018-07-16T00:32:34.713Z,73.36
2018-07-16T00:35:03.141Z,73.52
2018-07-16T00:37:31.527Z,73.75
2018-07-16T00:39:59.934Z,74.16
2018-07-16T00:42:28.305Z,73.61
2018-07-16T00:44:56.690Z,73.17
2018-07-16T00:47:25.085Z,74.22
2018-07-16T00:49:53.453Z,73.83
2018-07-16T00:52:21.841Z,73.95
2018-07-16T00:54:50.218Z,73.59
2018-07-16T00:57:18.610Z,74.06
2018-07-16T00:59:46.995Z,74.02
2018-07-16T01:02:15.394Z,74.84
2018-07-16T01:04:43.778Z,74.83
2018-07-16T01:07:12.187Z,74.52
2018-07-16T01:09:40.582Z,74.64
2018-07-16T01:12:09.135Z,74.92
2018-07-16T01:14:37.544Z,75.32
2018-07-16T01:17:06.105Z,74.57
2018-07-16T01:19:34.474Z,75.51
2018-07-16T01:22:02.893Z,74.80
2018-07-16T01:24:31.301Z,75.29
2018-07-16T01:26:59.738Z,75.32
2018-07-16T01:29:28.113Z,75.57
2018-07-16T01:31:56.653Z,75.76
2018-07-16T01:34:25.035Z,75.99
2018-07-16T01:36:53.431Z,75.82
2018-07-16T01:39:21.811Z,75.96
2018-07-16T01:41:50.183Z,75.64
2018-07-16T01:44:18.586Z,75.74
2018-07-16T01:46:46.953Z,76.16
2018-07-16T01:49:15.347Z,76.05
2018-07-16T01:51:43.742Z,76.08
2018-07-16T01:54:12.146Z,76.65
2018-07-16T01:56:40.526Z,76.40
2018-07-16T01:59:08.934Z,75.93
2018-07-16T02:01:37.315Z,76.60
2018-07-16T02:04:05.739Z,76.04
2018-07-16T02:06:34.128Z,76.26
2018-07-16T02:09:02.534Z,77.03
2018-07-16T02:11:30.920Z,77.09
2018-07-16T02:13:59.374Z,77.03
2018-07-16T02:16:27.782Z,76.45
2018-07-16T02:18:56.183Z,77.13
2018-07-16T02:21:24.579Z,77.18
2018-07-16T02:23:53.092Z,76.41
2018-07-16T02:26:21.470Z,76.42
2018-07-16T02:28:49.851Z,77.00
2018-07-16T02:31:18.350Z,76.96
2018-07-16T02:33:46.743Z,76.61
2018-07-16T02:36:15.151Z,76.82
2018-07-16T02:38:43.531Z,76.60
2018-07-16T02:41:11.939Z,76.59
2018-07-16T02:43:40.325Z,76.73
2018-07-16T02:46:08.726Z,75.65
2018-07-16T02:48:37.106Z,75.74
2018-07-16T02:51:05.572Z,76.13
2018-07-16T02:53:33.946Z,76.06
2018-07-16T02:56:02.350Z,75.62
2018-07-16T02:58:30.738Z,76.40
2018-07-16T03:00:59.139Z,75.89
2018-07-16T03:03:27.539Z,76.37
2018-07-16T03:05:55.958Z,76.12
2018-07-16T03:08:24.338Z,76.64
2018-07-16T03:10:52.759Z,76.64
2018-07-16T03:13:21.177Z,76.29
2018-07-16T03:15:49.611Z,76.57
2018-07-16T03:18:17.994Z,76.39
2018-07-16T03:20:46.411Z,76.80
2018-07-16T03:23:14.804Z,76.73
2018-07-16T03:25:43.198Z,76.73
2018-07-16T03:28:11.612Z,76.11
2018-07-16T03:30:39.991Z,76.72
2018-07-16T03:33:08.415Z,75.98
2018-07-16T03:35:36.795Z,76.72
2018-07-16T03:38:05.227Z,76.92
2018-07-16T03:40:33.614Z,76.22
2018-07-16T03:43:02.020Z,76.48
2018-07-16T03:45:30.415Z,76.62
2018-07-16T03:47:58.889Z,76.75
2018-07-16T03:50:27.226Z,76.10
2018-07-16T03:52:55.631Z,76.19
2018-07-16T03:55:24.012Z,76.10
2018-07-16T03:57:52.951Z,76.18
2018-07-16T04:00:21.323Z,76.17
2018-07-16T04:02:49.734Z,75.65
2018-07-16T04:05:18.684Z,75.48
2018-07-16T04:07:47.094Z,75.88
2018-07-16T04:10:15.470Z,75.73
2018-07-16T04:12:43.893Z,75.85
2018-07-16T04:15:12.285Z,74.40
2018-07-16T04:17:40.676Z,74.82
2018-07-16T04:20:09.567Z,73.78
2018-07-16T04:22:37.942Z,73.08
2018-07-16T04:25:06.366Z,72.53
2018-07-16T04:27:34.747Z,72.39
2018-07-16T04:30:03.160Z,71.77
2018-07-16T04:32:31.610Z,71.29
2018-07-16T04:35:00.029Z,71.72
2018-07-16T04:37:28.439Z,71.01
2018-07-16T04:39:56.863Z,70.57
2018-07-16T04:42:25.246Z,70.59
2018-07-16T04:44:53.641Z,71.07
2018-07-16T04:47:22.027Z,70.74
2018-07-16T04:49:50.437Z,70.61
2018-07-16T04:52:18.831Z,70.74
2018-07-16T04:54:47.406Z,70.71
2018-07-16T04:57:16.010Z,69.95
2018-07-16T04:59:44.390Z,70.87
2018-07-16T05:02:12.790Z,70.86
2018-07-16T05:04:42.474Z,70.23
2018-07-16T05:07:10.917Z,71.34
2018-07-16T05:09:39.302Z,70.84
2018-07-16T05:12:07.701Z,71.46
2018-07-16T05:14:36.155Z,71.59
2018-07-16T05:17:04.547Z,71.50
2018-07-16T05:19:32.926Z,72.54
2018-07-16T05:22:01.326Z,72.45
2018-07-16T05:24:29.702Z,72.77
2018-07-16T05:26:58.106Z,71.85
2018-07-16T05:29:26.481Z,71.70
2018-07-16T05:31:55.060Z,71.79
2018-07-16T05:34:23.318Z,72.19
2018-07-16T05:36:51.763Z,71.53
2018-07-16T05:39:20.402Z,71.57
2018-07-16T05:41:48.808Z,71.83
2018-07-16T05:44:17.245Z,70.71
2018-07-16T05:46:45.675Z,71.32
2018-07-16T05:49:14.049Z,70.16
2018-07-16T05:51:42.427Z,70.47
2018-07-16T05:54:10.860Z,70.65
2018-07-16T05:56:39.237Z,69.70
2018-07-16T05:59:07.864Z,69.49
2018-07-16T06:01:36.246Z,69.74
2018-07-16T06:04:04.646Z,69.71
2018-07-16T06:06:33.287Z,68.66
2018-07-16T06:09:01.894Z,68.59
2018-07-16T06:11:30.279Z,69.20
2018-07-16T06:13:58.708Z,68.71
2018-07-16T06:16:27.094Z,68.61
2018-07-16T06:18:55.515Z,67.94
2018-07-16T06:21:23.897Z,67.95
2018-07-16T06:23:52.331Z,68.67
2018-07-16T06:26:20.727Z,67.81
2018-07-16T06:28:49.138Z,68.34
2018-07-16T06:31:17.523Z,67.29
2018-07-16T06:33:45.958Z,67.30
2018-07-16T06:36:14.339Z,66.66
2018-07-16T06:38:42.722Z,67.45
2018-07-16T06:41:11.477Z,66.79
2018-07-16T06:43:39.530Z,66.65
2018-07-16T06:46:07.937Z,66.76
2018-07-16T06:48:36.320Z,66.02
2018-07-16T06:51:04.722Z,66.30
2018-07-16T06:53:33.102Z,65.13
2018-07-16T06:56:01.516Z,65.94
2018-07-16T06:58:29.896Z,65.28
2018-07-16T07:00:58.307Z,65.69
2018-07-16T07:03:26.691Z,63.98
2018-07-16T07:05:55.104Z,64.55
2018-07-16T07:08:23.492Z,64.21
2018-07-16T07:10:51.938Z,63.62
2018-07-16T07:13:20.338Z,63.65
2018-07-16T07:15:48.763Z,63.03
2018-07-16T07:18:17.262Z,62.55
2018-07-16T07:20:45.570Z,62.30
2018-07-16T07:23:13.982Z,62.72
2018-07-16T07:25:42.358Z,61.90
2018-07-16T07:28:10.860Z,61.29
2018-07-16T07:30:39.250Z,61.08
2018-07-16T07:33:07.668Z,60.88
2018-07-16T07:35:36.151Z,60.05
2018-07-16T07:38:04.575Z,59.24
2018-07-16T07:40:32.955Z,58.96
2018-07-16T07:43:01.349Z,59.15
2018-07-16T07:45:29.735Z,58.10
2018-07-16T07:47:58.139Z,58.93
2018-07-16T07:50:26.519Z,58.94
2018-07-16T07:52:54.913Z,58.95
2018-07-16T07:55:23.719Z,59.42
2018-07-16T07:57:51.772Z,57.95
2018-07-16T08:00:20.144Z,57.90
2018-07-16T08:02:48.566Z,57.10
2018-07-16T08:05:16.949Z,57.92
2018-07-16T08:07:45.331Z,56.44
2018-07-16T08:10:13.743Z,56.76
2018-07-16T08:12:42.173Z,56.55
2018-07-16T08:15:10.582Z,56.39
2018-07-16T08:17:38.983Z,54.85
2018-07-16T08:20:07.887Z,54.55
2018-07-16T08:22:36.270Z,53.76
2018-07-16T08:25:04.694Z,52.93
2018-07-16T08:27:33.115Z,53.37
2018-07-16T08:30:01.532Z,53.52
2018-07-16T08:32:29.953Z,51.96
2018-07-16T08:34:58.378Z,50.07
2018-07-16T08:37:26.791Z,48.77
2018-07-16T08:39:55.207Z,48.49
2018-07-16T08:42:23.595Z,48.82
2018-07-16T08:44:52.006Z,47.95
2018-07-16T08:47:20.443Z,48.47
2018-07-16T08:49:48.838Z,47.73
2018-07-16T08:52:17.235Z,44.92
2018-07-16T08:54:45.723Z,44.89
2018-07-16T08:57:14.095Z,44.35
2018-07-16T08:59:42.495Z,43.71
2018-07-16T09:02:10.930Z,43.50
2018-07-16T09:04:39.331Z,42.91
2018-07-16T09:07:07.738Z,43.80
2018-07-16T09:09:36.262Z,43.08
2018-07-16T09:12:04.655Z,44.02
2018-07-16T09:14:33.097Z,44.83
2018-07-16T09:17:01.563Z,43.64
2018-07-16T09:19:29.874Z,43.97
2018-07-16T09:21:58.270Z,44.50
2018-07-16T09:24:26.652Z,43.24
2018-07-16T09:26:55.165Z,41.17
2018-07-16T09:29:23.534Z,40.10
2018-07-16T09:31:51.955Z,38.32
2018-07-16T09:34:20.334Z,38.24
2018-07-16T09:36:48.735Z,38.45
2018-07-16T09:39:17.106Z,36.84
2018-07-16T09:41:45.666Z,35.76
2018-07-16T09:44:14.104Z,36.28
2018-07-16T09:46:42.466Z,37.90
2018-07-16T09:49:10.833Z,37.07
2018-07-16T09:51:39.246Z,37.66
2018-07-16T09:54:07.816Z,37.21
2018-07-16T09:56:36.218Z,38.01
2018-07-16T09:59:04.963Z,37.19
2018-07-16T10:01:38.850Z,37.44
2018-07-16T10:04:07.242Z,37.97
2018-07-16T10:06:35.639Z,37.79
2018-07-16T10:09:05.106Z,38.52
2018-07-16T10:11:33.610Z,38.11
2018-07-16T10:14:02.170Z,37.67
2018-07-16T10:16:30.775Z,37.27
2018-07-16T10:18:59.443Z,36.97
2018-07-16T10:21:27.822Z,36.34
2018-07-16T10:23:56.284Z,36.47
2018-07-16T10:26:24.774Z,36.24
2018-07-16T10:28:53.175Z,36.70
2018-07-16T10:31:21.546Z,37.04
2018-07-16T10:33:50.318Z,37.67
2018-07-16T10:36:18.642Z,36.82
2018-07-16T10:38:47.051Z,37.18
2018-07-16T10:41:15.429Z,35.82
2018-07-16T10:43:43.960Z,37.05
2018-07-16T10:46:12.339Z,36.09
2018-07-16T10:48:40.731Z,36.08
2018-07-16T10:51:09.110Z,36.28
2018-07-16T10:53:37.530Z,37.46
2018-07-16T10:56:05.970Z,36.50
2018-07-16T10:58:34.391Z,37.03
2018-07-16T11:01:02.776Z,37.41
2018-07-16T11:03:31.174Z,37.23
2018-07-16T11:06:03.722Z,36.77
2018-07-16T11:08:32.134Z,35.89
2018-07-16T11:11:00.515Z,36.40
2018-07-16T11:13:28.926Z,34.78
2018-07-16T11:15:57.323Z,34.02
2018-07-16T11:18:25.694Z,33.01
2018-07-16T11:20:54.108Z,32.92
2018-07-16T11:23:22.504Z,32.35
2018-07-16T11:25:53.935Z,33.54
2018-07-16T11:28:22.559Z,34.52
2018-07-16T11:30:51.573Z,33.10
2018-07-16T11:33:19.994Z,33.40
2018-07-16T11:35:48.485Z,31.99
2018-07-16T11:38:16.995Z,31.93
2018-07-16T11:40:45.404Z,32.41
2018-07-16T11:43:13.784Z,32.28
2018-07-16T11:45:42.359Z,32.56
2018-07-16T11:48:10.732Z,31.48
2018-07-16T11:50:39.130Z,31.97
2018-07-16T11:53:07.622Z,32.76
2018-07-16T11:55:36.022Z,31.77
2018-07-16T11:58:04.423Z,32.17
2018-07-16T12:00:32.802Z,32.91
2018-07-16T12:03:01.190Z,33.69
2018-07-16T12:05:29.571Z,33.99
2018-07-16T12:07:57.962Z,33.65
2018-07-16T12:10:26.331Z,33.34
2018-07-16T12:12:54.749Z,34.12
2018-07-16T12:15:23.137Z,34.01
2018-07-16T12:17:51.707Z,33.83
2018-07-16T12:20:20.088Z,33.28
2018-07-16T12:22:48.495Z,34.32
2018-07-16T12:25:16.875Z,33.43
2018-07-16T12:27:45.291Z,33.62
2018-07-16T12:30:13.874Z,33.94
2018-07-16T12:32:42.288Z,34.24
2018-07-16T12:35:10.676Z,33.56
2018-07-16T12:37:39.075Z,33.42
2018-07-16T12:40:07.474Z,33.49
2018-07-16T12:42:35.870Z,33.52
2018-07-16T12:45:04.259Z,32.76
2018-07-16T12:47:32.663Z,33.27
2018-07-16T12:50:01.041Z,31.84
2018-07-16T12:52:29.438Z,32.33
2018-07-16T12:54:58.031Z,32.41
2018-07-16T12:57:26.606Z,32.34
2018-07-16T12:59:54.989Z,31.72
2018-07-16T13:02:23.954Z,32.26
2018-07-16T13:04:52.346Z,32.10
2018-07-16T13:07:20.723Z,32.59
2018-07-16T13:09:49.140Z,33.00
2018-07-16T13:12:17.537Z,33.00
2018-07-16T13:14:45.978Z,32.03
2018-07-16T13:17:14.359Z,31.81
2018-07-16T13:19:42.759Z,32.10
2018-07-16T13:22:11.138Z,32.54
2018-07-16T13:24:39.543Z,32.07
2018-07-16T13:27:07.934Z,31.19
2018-07-16T13:29:36.333Z,30.47
2018-07-16T13:32:04.714Z,31.05
2018-07-16T13:34:33.107Z,30.93
2018-07-16T13:37:01.540Z,31.05
2018-07-16T13:39:29.938Z,30.77
2018-07-16T13:41:58.314Z,32.13
2018-07-16T13:44:26.686Z,30.61
2018-07-16T13:46:55.088Z,31.19
2018-07-16T13:49:23.471Z,31.58
2018-07-16T13:51:51.879Z,31.04
2018-07-16T13:54:20.300Z,32.23
2018-07-16T13:56:48.760Z,31.94
2018-07-16T13:59:17.143Z,30.68
2018-07-16T14:01:45.583Z,29.60
2018-07-16T14:04:13.938Z,29.74
2018-07-16T14:06:42.351Z,29.62
2018-07-16T14:09:10.735Z,28.63
2018-07-16T14:11:39.296Z,28.28
2018-07-16T14:14:07.694Z,29.39
2018-07-16T14:16:36.090Z,28.80
2018-07-16T14:19:04.475Z,30.13
2018-07-16T14:21:32.976Z,31.81
2018-07-16T14:24:01.355Z,32.40
2018-07-16T14:26:29.763Z,31.74
2018-07-16T14:28:58.138Z,31.98
2018-07-16T14:31:26.543Z,33.89
2018-07-16T14:33:54.921Z,34.25
2018-07-16T14:36:23.294Z,34.60
2018-07-16T14:38:51.691Z,34.62
2018-07-16T14:41:20.075Z,34.14
2018-07-16T14:43:48.582Z,34.39
2018-07-16T14:46:16.958Z,34.16
2018-07-16T14:48:45.361Z,33.66
2018-07-16T14:51:13.902Z,33.91
2018-07-16T14:53:42.562Z,34.52
2018-07-16T14:56:10.940Z,35.24
2018-07-16T14:58:39.418Z,34.09
2018-07-16T15:01:08.007Z,34.01
2018-07-16T15:03:36.402Z,34.55
2018-07-16T15:06:04.781Z,34.17
2018-07-16T15:08:33.232Z,34.60
2018-07-16T15:11:01.584Z,34.84
2018-07-16T15:13:30.007Z,34.24
2018-07-16T15:15:58.390Z,34.89
2018-07-16T15:18:26.798Z,34.67
2018-07-16T15:20:55.299Z,35.25
2018-07-16T15:23:23.825Z,35.01
2018-07-16T15:25:52.282Z,35.13
2018-07-16T15:28:20.790Z,35.32
2018-07-16T15:30:49.178Z,34.54
2018-07-16T15:33:17.608Z,35.54
2018-07-16T15:35:45.999Z,35.43
2018-07-16T15:38:14.370Z,35.25
2018-07-16T15:40:42.778Z,35.18
2018-07-16T15:43:11.155Z,35.29
2018-07-16T15:45:39.550Z,34.95
2018-07-16T15:48:07.951Z,34.69
2018-07-16T15:50:36.371Z,34.17
2018-07-16T15:53:04.770Z,34.00
2018-07-16T15:55:33.174Z,35.28
2018-07-16T15:58:01.542Z,33.84
2018-07-16T16:00:30.024Z,34.73
2018-07-16T16:02:58.488Z,34.25
2018-07-16T16:05:26.846Z,34.60
2018-07-16T16:07:55.226Z,34.65
2018-07-16T16:10:23.631Z,34.13
2018-07-16T16:12:52.084Z,34.23
2018-07-16T16:15:20.499Z,33.53
2018-07-16T16:17:48.866Z,33.97
2018-07-16T16:20:17.267Z,33.32
2018-07-16T16:22:45.644Z,34.12
2018-07-16T16:25:14.051Z,33.32
2018-07-16T16:27:42.426Z,33.85
2018-07-16T16:30:10.832Z,33.50
2018-07-16T16:32:39.251Z,34.61
2018-07-16T16:35:07.796Z,34.06
2018-07-16T16:37:36.169Z,33.25
2018-07-16T16:40:04.723Z,33.72
2018-07-16T16:42:33.131Z,33.55
2018-07-16T16:45:01.502Z,33.26
2018-07-16T16:47:29.913Z,31.92
2018-07-16T16:49:58.403Z,32.55
2018-07-16T16:52:26.807Z,31.78
2018-07-16T16:54:55.201Z,31.64
2018-07-16T16:57:23.602Z,31.44
2018-07-16T16:59:51.982Z,30.75
2018-07-16T17:02:20.387Z,31.30
2018-07-16T17:04:48.778Z,29.87
2018-07-16T17:07:17.178Z,30.82
2018-07-16T17:09:45.569Z,30.10
2018-07-16T17:12:13.978Z,30.41
2018-07-16T17:14:42.483Z,29.89
2018-07-16T17:17:12.020Z,30.73
2018-07-16T17:19:40.400Z,31.48
2018-07-16T17:22:08.802Z,31.06
2018-07-16T17:24:37.193Z,31.31
2018-07-16T17:27:05.594Z,31.52
2018-07-16T17:29:34.061Z,31.35
2018-07-16T17:32:02.444Z,31.15
2018-07-16T17:34:30.849Z,31.22
2018-07-16T17:36:59.235Z,31.25
2018-07-16T17:39:27.637Z,30.18
2018-07-16T17:41:56.023Z,30.43
2018-07-16T17:44:24.415Z,30.92
2018-07-16T17:46:52.845Z,31.48
2018-07-16T17:49:21.258Z,31.47
2018-07-16T17:51:49.634Z,31.49
2018-07-16T17:54:18.031Z,33.14
2018-07-16T17:56:46.402Z,33.43
2018-07-16T17:59:14.794Z,33.21
2018-07-16T18:01:43.239Z,34.26
2018-07-16T18:04:11.602Z,35.00
2018-07-16T18:06:39.972Z,35.12
2018-07-16T18:09:09.122Z,35.04
2018-07-16T18:11:37.671Z,36.60
2018-07-16T18:14:06.331Z,35.81
2018-07-16T18:16:34.711Z,36.14
2018-07-16T18:19:03.091Z,37.35
2018-07-16T18:21:31.725Z,37.04
2018-07-16T18:24:00.098Z,37.75
2018-07-16T18:26:28.499Z,37.31
2018-07-16T18:28:57.147Z,37.09
2018-07-16T18:31:25.542Z,37.10
2018-07-16T18:33:53.922Z,37.50
2018-07-16T18:36:22.366Z,38.40
2018-07-16T18:38:50.767Z,37.82
2018-07-16T18:41:19.168Z,37.74
2018-07-16T18:43:47.612Z,39.10
2018-07-16T18:46:16.016Z,39.18
2018-07-16T18:48:44.615Z,39.42
2018-07-16T18:51:13.019Z,39.38
2018-07-16T18:53:41.399Z,38.96
2018-07-16T18:56:10.782Z,38.77
2018-07-16T18:58:39.154Z,39.95
2018-07-16T19:01:07.583Z,39.32
2018-07-16T19:03:35.965Z,39.65
2018-07-16T19:06:04.395Z,39.29
2018-07-16T19:08:32.774Z,39.38
2018-07-16T19:11:01.169Z,40.43
2018-07-16T19:13:29.643Z,40.16
2018-07-16T19:15:58.077Z,40.34
2018-07-16T19:18:26.487Z,41.07
2018-07-16T19:20:54.922Z,41.33
2018-07-16T19:23:23.398Z,41.22
2018-07-16T19:25:51.906Z,42.32
2018-07-16T19:28:20.442Z,41.41
2018-07-16T19:30:48.888Z,42.19
2018-07-16T19:33:17.420Z,41.41
2018-07-16T19:35:45.883Z,41.73
2018-07-16T19:38:14.356Z,42.62
2018-07-16T19:40:42.769Z,41.90
2018-07-16T19:43:11.250Z,42.82
2018-07-16T19:45:39.839Z,42.45
2018-07-16T19:48:08.301Z,43.59
2018-07-16T19:50:36.954Z,43.80
2018-07-16T19:53:05.670Z,43.85
2018-07-16T19:55:34.238Z,43.02
2018-07-16T19:58:02.713Z,44.00
2018-07-16T20:00:31.256Z,43.59
2018-07-16T20:02:59.664Z,44.60
2018-07-16T20:05:28.259Z,44.10
2018-07-16T20:07:56.634Z,45.18
2018-07-16T20:10:25.035Z,44.92
2018-07-16T20:12:54.178Z,45.19
2018-07-16T20:15:22.767Z,46.24
2018-07-16T20:17:51.194Z,45.82
2018-07-16T20:20:19.649Z,46.29
2018-07-16T20:22:48.110Z,47.24
2018-07-16T20:25:16.863Z,47.78
2018-07-16T20:27:45.391Z,48.10
2018-07-16T20:30:13.918Z,47.86
2018-07-16T20:32:42.363Z,48.47
2018-07-16T20:35:10.802Z,48.60
2018-07-16T20:37:39.304Z,49.10
2018-07-16T20:40:07.785Z,49.34
2018-07-16T20:42:36.449Z,50.35
2018-07-16T20:45:04.851Z,50.13
2018-07-16T20:47:33.254Z,49.82
2018-07-16T20:50:01.630Z,50.76
2018-07-16T20:52:30.027Z,51.29
2018-07-16T20:54:58.420Z,50.87
2018-07-16T20:57:26.822Z,50.87
2018-07-16T20:59:55.198Z,51.44
2018-07-16T21:02:23.599Z,52.13
2018-07-16T21:04:51.972Z,51.75
2018-07-16T21:07:20.451Z,51.99
2018-07-16T21:09:48.823Z,52.22
2018-07-16T21:12:17.319Z,52.37
2018-07-16T21:14:45.932Z,53.61
2018-07-16T21:17:14.402Z,53.75
2018-07-16T21:19:42.766Z,54.12
2018-07-16T21:22:11.179Z,54.44
2018-07-16T21:24:39.574Z,54.55
2018-07-16T21:27:07.953Z,54.12
2018-07-16T21:29:36.353Z,54.82
2018-07-16T21:32:04.732Z,54.21
2018-07-16T21:34:33.130Z,55.03
2018-07-16T21:37:01.512Z,54.80
2018-07-16T21:39:29.906Z,54.44
2018-07-16T21:41:58.287Z,54.72
2018-07-16T21:44:26.682Z,55.02
2018-07-16T21:46:55.090Z,55.79
2018-07-16T21:49:23.485Z,55.38
2018-07-16T21:51:51.864Z,55.67
2018-07-16T21:54:20.287Z,54.90
2018-07-16T21:56:48.660Z,55.40
2018-07-16T21:59:17.135Z,55.42
2018-07-16T22:01:45.503Z,56.03
2018-07-16T22:04:13.878Z,56.48
2018-07-16T22:06:42.283Z,56.91
2018-07-16T22:09:10.679Z,56.06
2018-07-16T22:11:39.092Z,56.42
2018-07-16T22:14:07.489Z,56.96
2018-07-16T22:16:35.890Z,56.96
2018-07-16T22:19:04.698Z,57.47
2018-07-16T22:21:33.103Z,58.55
2018-07-16T22:24:01.488Z,58.25
2018-07-16T22:26:30.070Z,58.40
2018-07-16T22:28:58.464Z,58.75
2018-07-16T22:31:26.881Z,59.81
2018-07-16T22:33:55.278Z,59.17
2018-07-16T22:36:23.690Z,59.42
2018-07-16T22:38:52.071Z,59.56
2018-07-16T22:41:20.474Z,59.66
2018-07-16T22:43:48.854Z,60.76
2018-07-16T22:46:17.554Z,60.96
2018-07-16T22:48:45.939Z,61.10
2018-07-16T22:51:14.338Z,60.81
2018-07-16T22:53:42.719Z,60.74
2018-07-16T22:56:11.100Z,61.47
2018-07-16T22:58:39.505Z,61.61
2018-07-16T23:01:07.907Z,61.47
2018-07-16T23:03:36.469Z,61.93
2018-07-16T23:06:04.870Z,62.01
2018-07-16T23:08:33.261Z,62.05
2018-07-16T23:11:01.643Z,62.16
2018-07-16T23:13:30.062Z,62.27
2018-07-16T23:15:58.430Z,61.61
2018-07-16T23:18:26.834Z,61.71
2018-07-16T23:20:56.811Z,62.90
2018-07-16T23:23:25.210Z,62.74
2018-07-16T23:25:53.589Z,61.91
2018-07-16T23:28:21.986Z,62.71
2018-07-16T23:30:50.370Z,62.07
2018-07-16T23:33:18.778Z,62.56
2018-07-16T23:35:47.157Z,62.88
2018-07-16T23:38:15.539Z,62.53
2018-07-16T23:40:43.943Z,61.92
2018-07-16T23:43:12.328Z,62.54
2018-07-16T23:45:40.725Z,62.56
2018-07-16T23:48:09.115Z,62.10
2018-07-16T23:50:37.517Z,62.38
2018-07-16T23:53:06.590Z,62.58
2018-07-16T23:55:34.985Z,62.08
2018-07-16T23:58:03.366Z,62.32
